sensor_id;sensor_type;location;lat;lon;timestamp;pressure;altitude;pressure_sealevel;temperature
12854;BMP180;6495;51.808;7.478;2023-09-19T00:01:43;100245.00;;;18.20
12854;BMP180;6495;51.808;7.478;2023-09-19T00:04:17;100247.00;;;18.20
12854;BMP180;6495;51.808;7.478;2023-09-19T00:06:52;100252.00;;;18.20
12854;BMP180;6495;51.808;7.478;2023-09-19T00:09:25;100250.00;;;18.20
12854;BMP180;6495;51.808;7.478;2023-09-19T00:11:54;100260.00;;;18.20
12854;BMP180;6495;51.808;7.478;2023-09-19T00:14:28;100268.00;;;18.20
12854;BMP180;6495;51.808;7.478;2023-09-19T00:16:57;100285.00;;;18.20
12854;BMP180;6495;51.808;7.478;2023-09-19T00:19:31;100276.00;;;18.10
12854;BMP180;6495;51.808;7.478;2023-09-19T00:22:14;100272.00;;;18.10
12854;BMP180;6495;51.808;7.478;2023-09-19T00:24:43;100271.00;;;18.00
12854;BMP180;6495;51.808;7.478;2023-09-19T00:27:12;100281.00;;;18.00
12854;BMP180;6495;51.808;7.478;2023-09-19T00:29:47;100274.00;;;18.00
12854;BMP180;6495;51.808;7.478;2023-09-19T00:32:16;100275.00;;;18.00
12854;BMP180;6495;51.808;7.478;2023-09-19T00:34:44;100281.00;;;17.90
12854;BMP180;6495;51.808;7.478;2023-09-19T00:37:19;100285.00;;;17.90
12854;BMP180;6495;51.808;7.478;2023-09-19T00:39:49;100290.00;;;17.90
12854;BMP180;6495;51.808;7.478;2023-09-19T00:42:20;100289.00;;;17.90
12854;BMP180;6495;51.808;7.478;2023-09-19T00:44:53;100307.00;;;17.90
12854;BMP180;6495;51.808;7.478;2023-09-19T00:47:23;100302.00;;;17.90
12854;BMP180;6495;51.808;7.478;2023-09-19T00:49:57;100303.00;;;17.90
12854;BMP180;6495;51.808;7.478;2023-09-19T00:52:27;100301.00;;;17.90
12854;BMP180;6495;51.808;7.478;2023-09-19T00:54:56;100315.00;;;17.90
12854;BMP180;6495;51.808;7.478;2023-09-19T00:57:27;100311.00;;;17.90
12854;BMP180;6495;51.808;7.478;2023-09-19T01:00:03;100311.00;;;17.90
12854;BMP180;6495;51.808;7.478;2023-09-19T01:02:36;100312.00;;;17.90
12854;BMP180;6495;51.808;7.478;2023-09-19T01:05:07;100310.00;;;17.80
12854;BMP180;6495;51.808;7.478;2023-09-19T01:07:54;100307.00;;;17.80
12854;BMP180;6495;51.808;7.478;2023-09-19T01:10:23;100322.00;;;17.80
12854;BMP180;6495;51.808;7.478;2023-09-19T01:13:07;100320.00;;;17.80
12854;BMP180;6495;51.808;7.478;2023-09-19T01:15:50;100332.00;;;17.80
12854;BMP180;6495;51.808;7.478;2023-09-19T01:18:30;100338.00;;;17.80
12854;BMP180;6495;51.808;7.478;2023-09-19T01:21:09;100334.00;;;17.80
12854;BMP180;6495;51.808;7.478;2023-09-19T01:24:16;100325.00;;;17.80
12854;BMP180;6495;51.808;7.478;2023-09-19T01:27:25;100326.00;;;17.70
12854;BMP180;6495;51.808;7.478;2023-09-19T01:30:09;100341.00;;;17.70
12854;BMP180;6495;51.808;7.478;2023-09-19T01:32:39;100335.00;;;17.70
12854;BMP180;6495;51.808;7.478;2023-09-19T01:35:08;100349.00;;;17.70
12854;BMP180;6495;51.808;7.478;2023-09-19T01:37:39;100346.00;;;17.70
12854;BMP180;6495;51.808;7.478;2023-09-19T01:40:14;100351.00;;;17.70
12854;BMP180;6495;51.808;7.478;2023-09-19T01:42:54;100356.00;;;17.70
12854;BMP180;6495;51.808;7.478;2023-09-19T01:45:37;100364.00;;;17.60
12854;BMP180;6495;51.808;7.478;2023-09-19T01:48:19;100354.00;;;17.60
12854;BMP180;6495;51.808;7.478;2023-09-19T01:51:09;100365.00;;;17.60
12854;BMP180;6495;51.808;7.478;2023-09-19T01:53:45;100360.00;;;17.60
12854;BMP180;6495;51.808;7.478;2023-09-19T01:59:21;100364.00;;;17.60
12854;BMP180;6495;51.808;7.478;2023-09-19T02:01:53;100365.00;;;17.60
12854;BMP180;6495;51.808;7.478;2023-09-19T02:04:23;100366.00;;;17.60
12854;BMP180;6495;51.808;7.478;2023-09-19T02:06:52;100365.00;;;17.50
12854;BMP180;6495;51.808;7.478;2023-09-19T02:09:21;100362.00;;;17.60
12854;BMP180;6495;51.808;7.478;2023-09-19T02:11:51;100369.00;;;17.50
12854;BMP180;6495;51.808;7.478;2023-09-19T02:14:19;100365.00;;;17.50
12854;BMP180;6495;51.808;7.478;2023-09-19T02:16:48;100370.00;;;17.50
12854;BMP180;6495;51.808;7.478;2023-09-19T02:19:19;100369.00;;;17.50
12854;BMP180;6495;51.808;7.478;2023-09-19T02:21:49;100378.00;;;17.50
12854;BMP180;6495;51.808;7.478;2023-09-19T02:24:17;100382.00;;;17.50
12854;BMP180;6495;51.808;7.478;2023-09-19T02:26:46;100379.00;;;17.40
12854;BMP180;6495;51.808;7.478;2023-09-19T02:29:14;100381.00;;;17.40
12854;BMP180;6495;51.808;7.478;2023-09-19T02:31:42;100380.00;;;17.40
12854;BMP180;6495;51.808;7.478;2023-09-19T02:34:14;100391.00;;;17.30
12854;BMP180;6495;51.808;7.478;2023-09-19T02:36:44;100386.00;;;17.30
12854;BMP180;6495;51.808;7.478;2023-09-19T02:39:13;100393.00;;;17.30
12854;BMP180;6495;51.808;7.478;2023-09-19T02:41:41;100394.00;;;17.30
12854;BMP180;6495;51.808;7.478;2023-09-19T02:44:10;100385.00;;;17.20
12854;BMP180;6495;51.808;7.478;2023-09-19T02:46:38;100394.00;;;17.30
12854;BMP180;6495;51.808;7.478;2023-09-19T02:49:08;100394.00;;;17.20
12854;BMP180;6495;51.808;7.478;2023-09-19T02:51:36;100398.00;;;17.20
12854;BMP180;6495;51.808;7.478;2023-09-19T02:54:07;100392.00;;;17.20
12854;BMP180;6495;51.808;7.478;2023-09-19T02:56:36;100391.00;;;17.10
12854;BMP180;6495;51.808;7.478;2023-09-19T02:59:04;100387.00;;;17.10
12854;BMP180;6495;51.808;7.478;2023-09-19T03:01:33;100392.00;;;17.10
12854;BMP180;6495;51.808;7.478;2023-09-19T03:04:02;100383.00;;;17.00
12854;BMP180;6495;51.808;7.478;2023-09-19T03:06:30;100395.00;;;17.00
12854;BMP180;6495;51.808;7.478;2023-09-19T03:08:58;100396.00;;;17.00
12854;BMP180;6495;51.808;7.478;2023-09-19T03:11:28;100397.00;;;16.90
12854;BMP180;6495;51.808;7.478;2023-09-19T03:13:58;100393.00;;;16.90
12854;BMP180;6495;51.808;7.478;2023-09-19T03:16:26;100395.00;;;16.90
12854;BMP180;6495;51.808;7.478;2023-09-19T03:18:58;100396.00;;;16.90
12854;BMP180;6495;51.808;7.478;2023-09-19T03:21:31;100392.00;;;16.80
12854;BMP180;6495;51.808;7.478;2023-09-19T03:23:59;100397.00;;;16.80
12854;BMP180;6495;51.808;7.478;2023-09-19T03:26:29;100405.00;;;16.80
12854;BMP180;6495;51.808;7.478;2023-09-19T03:28:57;100404.00;;;16.80
12854;BMP180;6495;51.808;7.478;2023-09-19T03:31:26;100408.00;;;16.80
12854;BMP180;6495;51.808;7.478;2023-09-19T03:33:54;100412.00;;;16.70
12854;BMP180;6495;51.808;7.478;2023-09-19T03:36:23;100412.00;;;16.70
12854;BMP180;6495;51.808;7.478;2023-09-19T03:38:51;100416.00;;;16.60
12854;BMP180;6495;51.808;7.478;2023-09-19T03:41:20;100409.00;;;16.60
12854;BMP180;6495;51.808;7.478;2023-09-19T03:43:49;100414.00;;;16.60
12854;BMP180;6495;51.808;7.478;2023-09-19T03:46:18;100417.00;;;16.60
12854;BMP180;6495;51.808;7.478;2023-09-19T03:48:46;100409.00;;;16.60
12854;BMP180;6495;51.808;7.478;2023-09-19T03:51:14;100409.00;;;16.60
12854;BMP180;6495;51.808;7.478;2023-09-19T03:53:43;100408.00;;;16.60
12854;BMP180;6495;51.808;7.478;2023-09-19T03:56:11;100409.00;;;16.60
12854;BMP180;6495;51.808;7.478;2023-09-19T03:58:40;100409.00;;;16.50
12854;BMP180;6495;51.808;7.478;2023-09-19T04:01:10;100409.00;;;16.50
12854;BMP180;6495;51.808;7.478;2023-09-19T04:03:40;100415.00;;;16.50
12854;BMP180;6495;51.808;7.478;2023-09-19T04:06:15;100411.00;;;16.50
12854;BMP180;6495;51.808;7.478;2023-09-19T04:08:44;100419.00;;;16.50
12854;BMP180;6495;51.808;7.478;2023-09-19T04:11:14;100419.00;;;16.50
12854;BMP180;6495;51.808;7.478;2023-09-19T04:13:42;100425.00;;;16.40
12854;BMP180;6495;51.808;7.478;2023-09-19T04:16:12;100418.00;;;16.40
12854;BMP180;6495;51.808;7.478;2023-09-19T04:18:40;100415.00;;;16.40
12854;BMP180;6495;51.808;7.478;2023-09-19T04:21:11;100417.00;;;16.40
12854;BMP180;6495;51.808;7.478;2023-09-19T04:23:41;100422.00;;;16.30
12854;BMP180;6495;51.808;7.478;2023-09-19T04:26:09;100419.00;;;16.30
12854;BMP180;6495;51.808;7.478;2023-09-19T04:28:39;100416.00;;;16.30
12854;BMP180;6495;51.808;7.478;2023-09-19T04:31:09;100429.00;;;16.30
12854;BMP180;6495;51.808;7.478;2023-09-19T04:33:40;100423.00;;;16.30
12854;BMP180;6495;51.808;7.478;2023-09-19T04:36:10;100424.00;;;16.30
12854;BMP180;6495;51.808;7.478;2023-09-19T04:39:00;100431.00;;;16.30
12854;BMP180;6495;51.808;7.478;2023-09-19T04:41:32;100423.00;;;16.30
12854;BMP180;6495;51.808;7.478;2023-09-19T04:44:01;100433.00;;;16.30
12854;BMP180;6495;51.808;7.478;2023-09-19T04:46:30;100437.00;;;16.30
12854;BMP180;6495;51.808;7.478;2023-09-19T04:49:44;100428.00;;;16.30
12854;BMP180;6495;51.808;7.478;2023-09-19T04:52:15;100437.00;;;16.20
12854;BMP180;6495;51.808;7.478;2023-09-19T04:54:44;100440.00;;;16.20
12854;BMP180;6495;51.808;7.478;2023-09-19T04:57:13;100446.00;;;16.20
12854;BMP180;6495;51.808;7.478;2023-09-19T04:59:51;100440.00;;;16.20
12854;BMP180;6495;51.808;7.478;2023-09-19T05:02:20;100442.00;;;16.20
12854;BMP180;6495;51.808;7.478;2023-09-19T05:04:51;100451.00;;;16.20
12854;BMP180;6495;51.808;7.478;2023-09-19T05:07:21;100462.00;;;16.20
12854;BMP180;6495;51.808;7.478;2023-09-19T05:09:56;100454.00;;;16.20
12854;BMP180;6495;51.808;7.478;2023-09-19T05:12:26;100472.00;;;16.20
12854;BMP180;6495;51.808;7.478;2023-09-19T05:14:54;100478.00;;;16.20
12854;BMP180;6495;51.808;7.478;2023-09-19T05:17:23;100478.00;;;16.30
12854;BMP180;6495;51.808;7.478;2023-09-19T05:20:04;100483.00;;;16.30
12854;BMP180;6495;51.808;7.478;2023-09-19T05:22:42;100485.00;;;16.20
12854;BMP180;6495;51.808;7.478;2023-09-19T05:25:13;100497.00;;;16.20
12854;BMP180;6495;51.808;7.478;2023-09-19T05:27:43;100494.00;;;16.20
12854;BMP180;6495;51.808;7.478;2023-09-19T05:30:12;100502.00;;;16.20
12854;BMP180;6495;51.808;7.478;2023-09-19T05:32:42;100508.00;;;16.10
12854;BMP180;6495;51.808;7.478;2023-09-19T05:35:12;100513.00;;;16.20
12854;BMP180;6495;51.808;7.478;2023-09-19T05:37:47;100508.00;;;16.20
12854;BMP180;6495;51.808;7.478;2023-09-19T05:40:18;100509.00;;;16.10
12854;BMP180;6495;51.808;7.478;2023-09-19T05:42:47;100509.00;;;16.10
12854;BMP180;6495;51.808;7.478;2023-09-19T05:45:18;100508.00;;;16.10
12854;BMP180;6495;51.808;7.478;2023-09-19T05:47:50;100509.00;;;16.10
12854;BMP180;6495;51.808;7.478;2023-09-19T05:50:24;100515.00;;;16.10
12854;BMP180;6495;51.808;7.478;2023-09-19T05:53:07;100515.00;;;16.10
12854;BMP180;6495;51.808;7.478;2023-09-19T05:55:35;100512.00;;;16.10
12854;BMP180;6495;51.808;7.478;2023-09-19T05:58:03;100507.00;;;16.10
12854;BMP180;6495;51.808;7.478;2023-09-19T06:00:33;100511.00;;;16.10
12854;BMP180;6495;51.808;7.478;2023-09-19T06:03:05;100503.00;;;16.20
12854;BMP180;6495;51.808;7.478;2023-09-19T06:05:35;100514.00;;;16.10
12854;BMP180;6495;51.808;7.478;2023-09-19T06:08:07;100500.00;;;16.10
12854;BMP180;6495;51.808;7.478;2023-09-19T06:10:36;100506.00;;;16.10
12854;BMP180;6495;51.808;7.478;2023-09-19T06:13:05;100505.00;;;16.10
12854;BMP180;6495;51.808;7.478;2023-09-19T06:15:37;100504.00;;;16.10
12854;BMP180;6495;51.808;7.478;2023-09-19T06:18:11;100504.00;;;16.10
12854;BMP180;6495;51.808;7.478;2023-09-19T06:20:44;100503.00;;;16.10
12854;BMP180;6495;51.808;7.478;2023-09-19T06:23:12;100503.00;;;16.10
12854;BMP180;6495;51.808;7.478;2023-09-19T06:25:41;100498.00;;;16.10
12854;BMP180;6495;51.808;7.478;2023-09-19T06:28:11;100500.00;;;16.10
12854;BMP180;6495;51.808;7.478;2023-09-19T06:30:40;100499.00;;;16.10
12854;BMP180;6495;51.808;7.478;2023-09-19T06:33:09;100513.00;;;16.20
12854;BMP180;6495;51.808;7.478;2023-09-19T06:35:45;100510.00;;;16.20
12854;BMP180;6495;51.808;7.478;2023-09-19T06:38:14;100507.00;;;16.20
12854;BMP180;6495;51.808;7.478;2023-09-19T06:40:42;100509.00;;;16.20
12854;BMP180;6495;51.808;7.478;2023-09-19T06:43:14;100504.00;;;16.20
12854;BMP180;6495;51.808;7.478;2023-09-19T06:45:42;100513.00;;;16.20
12854;BMP180;6495;51.808;7.478;2023-09-19T06:48:11;100511.00;;;16.30
12854;BMP180;6495;51.808;7.478;2023-09-19T06:50:40;100516.00;;;16.30
12854;BMP180;6495;51.808;7.478;2023-09-19T06:53:12;100520.00;;;16.30
12854;BMP180;6495;51.808;7.478;2023-09-19T06:55:40;100522.00;;;16.30
12854;BMP180;6495;51.808;7.478;2023-09-19T06:58:11;100519.00;;;16.30
12854;BMP180;6495;51.808;7.478;2023-09-19T07:00:39;100523.00;;;16.30
12854;BMP180;6495;51.808;7.478;2023-09-19T07:03:08;100525.00;;;16.30
12854;BMP180;6495;51.808;7.478;2023-09-19T07:05:40;100523.00;;;16.40
12854;BMP180;6495;51.808;7.478;2023-09-19T07:08:11;100528.00;;;16.40
12854;BMP180;6495;51.808;7.478;2023-09-19T07:10:41;100531.00;;;16.40
12854;BMP180;6495;51.808;7.478;2023-09-19T07:13:16;100529.00;;;16.40
12854;BMP180;6495;51.808;7.478;2023-09-19T07:15:45;100531.00;;;16.40
12854;BMP180;6495;51.808;7.478;2023-09-19T07:18:16;100533.00;;;16.50
12854;BMP180;6495;51.808;7.478;2023-09-19T07:20:45;100541.00;;;16.50
12854;BMP180;6495;51.808;7.478;2023-09-19T07:23:20;100547.00;;;16.60
12854;BMP180;6495;51.808;7.478;2023-09-19T07:25:49;100544.00;;;16.60
12854;BMP180;6495;51.808;7.478;2023-09-19T07:28:18;100556.00;;;16.60
12854;BMP180;6495;51.808;7.478;2023-09-19T07:30:46;100552.00;;;16.70
12854;BMP180;6495;51.808;7.478;2023-09-19T07:33:15;100553.00;;;16.70
12854;BMP180;6495;51.808;7.478;2023-09-19T07:35:46;100542.00;;;16.70
12854;BMP180;6495;51.808;7.478;2023-09-19T07:38:14;100549.00;;;16.80
12854;BMP180;6495;51.808;7.478;2023-09-19T07:40:45;100556.00;;;16.80
12854;BMP180;6495;51.808;7.478;2023-09-19T07:43:14;100555.00;;;16.80
12854;BMP180;6495;51.808;7.478;2023-09-19T07:45:42;100550.00;;;16.90
12854;BMP180;6495;51.808;7.478;2023-09-19T07:48:11;100554.00;;;16.90
12854;BMP180;6495;51.808;7.478;2023-09-19T07:50:42;100556.00;;;16.90
12854;BMP180;6495;51.808;7.478;2023-09-19T07:53:12;100548.00;;;17.00
12854;BMP180;6495;51.808;7.478;2023-09-19T07:55:42;100556.00;;;17.00
12854;BMP180;6495;51.808;7.478;2023-09-19T07:58:17;100557.00;;;17.00
12854;BMP180;6495;51.808;7.478;2023-09-19T08:00:45;100567.00;;;17.00
12854;BMP180;6495;51.808;7.478;2023-09-19T08:03:14;100565.00;;;17.00
12854;BMP180;6495;51.808;7.478;2023-09-19T08:05:44;100572.00;;;17.10
12854;BMP180;6495;51.808;7.478;2023-09-19T08:08:13;100568.00;;;17.10
12854;BMP180;6495;51.808;7.478;2023-09-19T08:10:43;100569.00;;;17.10
12854;BMP180;6495;51.808;7.478;2023-09-19T08:13:15;100573.00;;;17.20
12854;BMP180;6495;51.808;7.478;2023-09-19T08:15:45;100581.00;;;17.20
12854;BMP180;6495;51.808;7.478;2023-09-19T08:18:15;100582.00;;;17.20
12854;BMP180;6495;51.808;7.478;2023-09-19T08:20:49;100583.00;;;17.30
12854;BMP180;6495;51.808;7.478;2023-09-19T08:23:19;100595.00;;;17.40
12854;BMP180;6495;51.808;7.478;2023-09-19T08:25:48;100598.00;;;17.40
12854;BMP180;6495;51.808;7.478;2023-09-19T08:28:18;100603.00;;;17.40
12854;BMP180;6495;51.808;7.478;2023-09-19T08:30:51;100601.00;;;17.50
12854;BMP180;6495;51.808;7.478;2023-09-19T08:33:20;100598.00;;;17.50
12854;BMP180;6495;51.808;7.478;2023-09-19T08:35:49;100601.00;;;17.60
12854;BMP180;6495;51.808;7.478;2023-09-19T08:38:17;100603.00;;;17.60
12854;BMP180;6495;51.808;7.478;2023-09-19T08:40:46;100605.00;;;17.60
12854;BMP180;6495;51.808;7.478;2023-09-19T08:43:14;100600.00;;;17.70
12854;BMP180;6495;51.808;7.478;2023-09-19T08:45:44;100592.00;;;17.70
12854;BMP180;6495;51.808;7.478;2023-09-19T08:48:23;100605.00;;;17.80
12854;BMP180;6495;51.808;7.478;2023-09-19T08:50:56;100608.00;;;17.80
12854;BMP180;6495;51.808;7.478;2023-09-19T08:53:41;100600.00;;;17.80
12854;BMP180;6495;51.808;7.478;2023-09-19T08:56:12;100603.00;;;17.90
12854;BMP180;6495;51.808;7.478;2023-09-19T08:58:48;100608.00;;;18.00
12854;BMP180;6495;51.808;7.478;2023-09-19T09:01:22;100601.00;;;18.10
12854;BMP180;6495;51.808;7.478;2023-09-19T09:03:54;100606.00;;;18.10
12854;BMP180;6495;51.808;7.478;2023-09-19T09:06:24;100602.00;;;18.20
12854;BMP180;6495;51.808;7.478;2023-09-19T09:08:53;100601.00;;;18.20
12854;BMP180;6495;51.808;7.478;2023-09-19T09:11:21;100602.00;;;18.30
12854;BMP180;6495;51.808;7.478;2023-09-19T09:13:52;100597.00;;;18.40
12854;BMP180;6495;51.808;7.478;2023-09-19T09:16:22;100595.00;;;18.40
12854;BMP180;6495;51.808;7.478;2023-09-19T09:19:02;100605.00;;;18.50
12854;BMP180;6495;51.808;7.478;2023-09-19T09:21:35;100601.00;;;18.50
12854;BMP180;6495;51.808;7.478;2023-09-19T09:24:26;100596.00;;;18.60
12854;BMP180;6495;51.808;7.478;2023-09-19T09:26:58;100599.00;;;18.60
12854;BMP180;6495;51.808;7.478;2023-09-19T09:29:47;100602.00;;;18.70
12854;BMP180;6495;51.808;7.478;2023-09-19T09:32:23;100606.00;;;18.80
12854;BMP180;6495;51.808;7.478;2023-09-19T09:34:57;100581.00;;;18.90
12854;BMP180;6495;51.808;7.478;2023-09-19T09:37:29;100580.00;;;18.90
12854;BMP180;6495;51.808;7.478;2023-09-19T09:40:03;100586.00;;;19.00
12854;BMP180;6495;51.808;7.478;2023-09-19T09:42:59;100579.00;;;19.00
12854;BMP180;6495;51.808;7.478;2023-09-19T09:45:27;100577.00;;;19.00
12854;BMP180;6495;51.808;7.478;2023-09-19T09:48:07;100590.00;;;19.00
12854;BMP180;6495;51.808;7.478;2023-09-19T09:50:48;100594.00;;;19.10
12854;BMP180;6495;51.808;7.478;2023-09-19T09:53:25;100591.00;;;19.20
12854;BMP180;6495;51.808;7.478;2023-09-19T09:56:01;100587.00;;;19.20
12854;BMP180;6495;51.808;7.478;2023-09-19T09:58:34;100583.00;;;19.20
12854;BMP180;6495;51.808;7.478;2023-09-19T10:01:04;100588.00;;;19.20
12854;BMP180;6495;51.808;7.478;2023-09-19T10:03:40;100595.00;;;19.40
12854;BMP180;6495;51.808;7.478;2023-09-19T10:06:14;100586.00;;;19.50
12854;BMP180;6495;51.808;7.478;2023-09-19T10:09:05;100578.00;;;19.70
12854;BMP180;6495;51.808;7.478;2023-09-19T10:11:42;100594.00;;;19.80
12854;BMP180;6495;51.808;7.478;2023-09-19T10:14:15;100590.00;;;19.80
12854;BMP180;6495;51.808;7.478;2023-09-19T10:16:47;100596.00;;;19.90
12854;BMP180;6495;51.808;7.478;2023-09-19T10:19:23;100578.00;;;20.00
12854;BMP180;6495;51.808;7.478;2023-09-19T10:22:02;100586.00;;;20.00
12854;BMP180;6495;51.808;7.478;2023-09-19T10:24:37;100566.00;;;20.20
12854;BMP180;6495;51.808;7.478;2023-09-19T10:27:38;100589.00;;;20.30
12854;BMP180;6495;51.808;7.478;2023-09-19T10:30:26;100575.00;;;20.30
12854;BMP180;6495;51.808;7.478;2023-09-19T10:33:04;100566.00;;;20.40
12854;BMP180;6495;51.808;7.478;2023-09-19T10:35:44;100570.00;;;20.40
12854;BMP180;6495;51.808;7.478;2023-09-19T10:38:33;100575.00;;;20.40
12854;BMP180;6495;51.808;7.478;2023-09-19T10:41:24;100574.00;;;20.50
12854;BMP180;6495;51.808;7.478;2023-09-19T10:43:58;100577.00;;;20.50
12854;BMP180;6495;51.808;7.478;2023-09-19T10:46:49;100575.00;;;20.50
12854;BMP180;6495;51.808;7.478;2023-09-19T10:49:21;100575.00;;;20.50
12854;BMP180;6495;51.808;7.478;2023-09-19T10:52:59;100571.00;;;20.60
12854;BMP180;6495;51.808;7.478;2023-09-19T10:55:59;100553.00;;;20.70
12854;BMP180;6495;51.808;7.478;2023-09-19T10:58:49;100561.00;;;20.70
12854;BMP180;6495;51.808;7.478;2023-09-19T11:01:43;100561.00;;;20.80
12854;BMP180;6495;51.808;7.478;2023-09-19T11:04:52;100559.00;;;21.00
12854;BMP180;6495;51.808;7.478;2023-09-19T11:08:13;100557.00;;;21.10
12854;BMP180;6495;51.808;7.478;2023-09-19T11:10:51;100570.00;;;21.10
12854;BMP180;6495;51.808;7.478;2023-09-19T11:13:26;100572.00;;;21.20
12854;BMP180;6495;51.808;7.478;2023-09-19T11:16:08;100570.00;;;21.20
12854;BMP180;6495;51.808;7.478;2023-09-19T11:18:54;100571.00;;;21.40
12854;BMP180;6495;51.808;7.478;2023-09-19T11:21:54;100568.00;;;21.60
12854;BMP180;6495;51.808;7.478;2023-09-19T11:24:48;100573.00;;;21.50
12854;BMP180;6495;51.808;7.478;2023-09-19T11:27:18;100577.00;;;21.50
12854;BMP180;6495;51.808;7.478;2023-09-19T11:30:28;100564.00;;;21.60
12854;BMP180;6495;51.808;7.478;2023-09-19T11:33:16;100581.00;;;21.60
12854;BMP180;6495;51.808;7.478;2023-09-19T11:36:03;100578.00;;;21.60
12854;BMP180;6495;51.808;7.478;2023-09-19T11:39:05;100571.00;;;21.70
12854;BMP180;6495;51.808;7.478;2023-09-19T11:41:50;100554.00;;;21.70
12854;BMP180;6495;51.808;7.478;2023-09-19T11:44:38;100567.00;;;21.70
12854;BMP180;6495;51.808;7.478;2023-09-19T11:47:14;100554.00;;;21.70
12854;BMP180;6495;51.808;7.478;2023-09-19T11:49:44;100565.00;;;21.70
12854;BMP180;6495;51.808;7.478;2023-09-19T11:52:22;100561.00;;;21.70
12854;BMP180;6495;51.808;7.478;2023-09-19T11:54:55;100554.00;;;21.70
12854;BMP180;6495;51.808;7.478;2023-09-19T11:57:31;100558.00;;;21.70
12854;BMP180;6495;51.808;7.478;2023-09-19T12:00:04;100563.00;;;21.70
12854;BMP180;6495;51.808;7.478;2023-09-19T12:02:40;100559.00;;;21.80
12854;BMP180;6495;51.808;7.478;2023-09-19T12:05:12;100566.00;;;21.90
12854;BMP180;6495;51.808;7.478;2023-09-19T12:07:49;100553.00;;;21.90
12854;BMP180;6495;51.808;7.478;2023-09-19T12:10:19;100555.00;;;21.90
12854;BMP180;6495;51.808;7.478;2023-09-19T12:12:52;100547.00;;;21.90
12854;BMP180;6495;51.808;7.478;2023-09-19T12:15:25;100541.00;;;21.90
12854;BMP180;6495;51.808;7.478;2023-09-19T12:17:58;100548.00;;;21.90
12854;BMP180;6495;51.808;7.478;2023-09-19T12:20:43;100547.00;;;21.90
12854;BMP180;6495;51.808;7.478;2023-09-19T12:23:16;100549.00;;;21.90
12854;BMP180;6495;51.808;7.478;2023-09-19T12:25:47;100538.00;;;21.90
12854;BMP180;6495;51.808;7.478;2023-09-19T12:28:20;100539.00;;;21.90
12854;BMP180;6495;51.808;7.478;2023-09-19T12:30:50;100534.00;;;21.90
12854;BMP180;6495;51.808;7.478;2023-09-19T12:33:20;100530.00;;;21.90
12854;BMP180;6495;51.808;7.478;2023-09-19T12:35:52;100537.00;;;21.90
12854;BMP180;6495;51.808;7.478;2023-09-19T12:38:33;100535.00;;;21.90
12854;BMP180;6495;51.808;7.478;2023-09-19T12:41:04;100527.00;;;21.90
12854;BMP180;6495;51.808;7.478;2023-09-19T12:43:37;100519.00;;;21.90
12854;BMP180;6495;51.808;7.478;2023-09-19T12:46:07;100531.00;;;21.90
12854;BMP180;6495;51.808;7.478;2023-09-19T12:48:35;100526.00;;;21.90
12854;BMP180;6495;51.808;7.478;2023-09-19T12:51:07;100519.00;;;21.80
12854;BMP180;6495;51.808;7.478;2023-09-19T12:53:39;100524.00;;;21.80
12854;BMP180;6495;51.808;7.478;2023-09-19T12:56:16;100527.00;;;21.70
12854;BMP180;6495;51.808;7.478;2023-09-19T12:58:51;100537.00;;;21.70
12854;BMP180;6495;51.808;7.478;2023-09-19T13:01:23;100527.00;;;21.60
12854;BMP180;6495;51.808;7.478;2023-09-19T13:04:15;100523.00;;;21.60
12854;BMP180;6495;51.808;7.478;2023-09-19T13:06:48;100521.00;;;21.70
12854;BMP180;6495;51.808;7.478;2023-09-19T13:09:29;100529.00;;;21.70
12854;BMP180;6495;51.808;7.478;2023-09-19T13:12:05;100532.00;;;21.80
12854;BMP180;6495;51.808;7.478;2023-09-19T13:14:36;100527.00;;;21.80
12854;BMP180;6495;51.808;7.478;2023-09-19T13:17:09;100521.00;;;21.80
12854;BMP180;6495;51.808;7.478;2023-09-19T13:19:46;100526.00;;;21.80
12854;BMP180;6495;51.808;7.478;2023-09-19T13:22:40;100520.00;;;21.80
12854;BMP180;6495;51.808;7.478;2023-09-19T13:25:15;100519.00;;;21.80
12854;BMP180;6495;51.808;7.478;2023-09-19T13:36:49;100505.00;;;22.10
12854;BMP180;6495;51.808;7.478;2023-09-19T13:39:17;100487.00;;;22.20
12854;BMP180;6495;51.808;7.478;2023-09-19T13:41:50;100485.00;;;22.10
12854;BMP180;6495;51.808;7.478;2023-09-19T13:58:50;100518.00;;;22.20
12854;BMP180;6495;51.808;7.478;2023-09-19T14:01:19;100511.00;;;22.20
12854;BMP180;6495;51.808;7.478;2023-09-19T14:03:47;100506.00;;;22.20
12854;BMP180;6495;51.808;7.478;2023-09-19T14:06:16;100511.00;;;22.20
12854;BMP180;6495;51.808;7.478;2023-09-19T14:08:47;100518.00;;;22.20
12854;BMP180;6495;51.808;7.478;2023-09-19T14:11:17;100518.00;;;22.10
12854;BMP180;6495;51.808;7.478;2023-09-19T14:13:45;100509.00;;;22.10
12854;BMP180;6495;51.808;7.478;2023-09-19T14:16:17;100519.00;;;22.00
12854;BMP180;6495;51.808;7.478;2023-09-19T14:18:46;100536.00;;;22.00
12854;BMP180;6495;51.808;7.478;2023-09-19T14:21:14;100525.00;;;21.90
12854;BMP180;6495;51.808;7.478;2023-09-19T14:23:42;100515.00;;;21.90
12854;BMP180;6495;51.808;7.478;2023-09-19T14:26:11;100517.00;;;21.90
12854;BMP180;6495;51.808;7.478;2023-09-19T14:28:39;100531.00;;;21.80
12854;BMP180;6495;51.808;7.478;2023-09-19T14:31:10;100520.00;;;21.80
12854;BMP180;6495;51.808;7.478;2023-09-19T14:33:40;100518.00;;;21.70
12854;BMP180;6495;51.808;7.478;2023-09-19T14:36:09;100530.00;;;21.70
12854;BMP180;6495;51.808;7.478;2023-09-19T14:38:41;100535.00;;;21.70
12854;BMP180;6495;51.808;7.478;2023-09-19T14:41:09;100525.00;;;21.70
12854;BMP180;6495;51.808;7.478;2023-09-19T14:43:38;100527.00;;;21.60
12854;BMP180;6495;51.808;7.478;2023-09-19T14:46:07;100522.00;;;21.60
12854;BMP180;6495;51.808;7.478;2023-09-19T14:48:44;100501.00;;;21.50
12854;BMP180;6495;51.808;7.478;2023-09-19T14:51:19;100508.00;;;21.50
12854;BMP180;6495;51.808;7.478;2023-09-19T14:53:48;100520.00;;;21.40
12854;BMP180;6495;51.808;7.478;2023-09-19T14:56:19;100522.00;;;21.50
12854;BMP180;6495;51.808;7.478;2023-09-19T14:58:51;100520.00;;;21.40
12854;BMP180;6495;51.808;7.478;2023-09-19T15:01:22;100526.00;;;21.30
12854;BMP180;6495;51.808;7.478;2023-09-19T15:04:03;100529.00;;;21.30
12854;BMP180;6495;51.808;7.478;2023-09-19T15:06:39;100525.00;;;21.30
12854;BMP180;6495;51.808;7.478;2023-09-19T15:09:13;100532.00;;;21.30
12854;BMP180;6495;51.808;7.478;2023-09-19T15:11:43;100518.00;;;21.20
12854;BMP180;6495;51.808;7.478;2023-09-19T15:14:11;100518.00;;;21.20